Impacts TAF Board
For situational awareness. Not to be used for flight planning purposes.
IDs:

KHDC - Hammond/Northshore R, LA, US

Issued at 0520 UTC 30 Jun 2022
Updated at 0525 UTC 30 Jun 2022
Potential Impact None Slight Moderate High
Time0518Z 30/06Z 30/07Z 30/08Z 30/09Z 30/10Z 30/11Z 30/12Z 30/13Z 30/14Z 30/15Z 30/16Z 30/17Z 30/18Z>>
Type OBS PRVL PRVL PRVL PRVL PRVL PRVL PRVL PRVL PRVL PRVL PRVL PRVL PRVL
VIS 10 >6 >6 >6 >6 >6 >6 >6 >6 >6 >6 >6 >6 >6
CIG -- 250 250 250 250 250 250 100 100 100 100 100 100 45
Cover CLR BKN BKN BKN BKN BKN BKN BKN BKN BKN BKN BKN BKN BKN
FltCat VFR VFR VFR VFR VFR VFR VFR VFR VFR VFR VFR VFR VFR VFR
WX -- -- -- -- -- -- -- -- -- -- -- -- -- -SHRA VCTS
WDir VRB 80 80 80 80 80 80 VRB VRB VRB VRB VRB VRB 130
WSpd 0 4 4 4 4 4 4 3 3 3 3 3 3 7
WGst -- -- -- -- -- -- -- -- -- -- -- -- -- --
WSHgt -- -- -- -- -- -- -- -- -- -- -- -- -- --
WSDir -- -- -- -- -- -- -- -- -- -- -- -- -- --
WSSpd -- -- -- -- -- -- -- -- -- -- -- -- -- --
Raw TAF
KHDC 300520Z 3006/0106 08004KT P6SM SCT050 SCT110 BKN250
  FM301200 VRB03KT P6SM SCT015 BKN100
  FM301800 13007KT P6SM -SHRA VCTS SCT025CB BKN045
  FM302300 15006KT P6SM -SHRA VCTS SCT020CB BKN060
  FM010000 15005KT P6SM SCT035 BKN070


Raw METAR
KHDC 300518Z AUTO 00000KT 10SM CLR 24/23 A3011 RMK AO2
KHDC 300458Z AUTO 00000KT 10SM CLR 24/23 A3011 RMK AO2
KHDC 300440Z AUTO 00000KT 10SM CLR 24/23 A3011 RMK AO2
KHDC 300418Z AUTO 08004KT 10SM CLR 25/23 A3011 RMK AO2
KHDC 300358Z AUTO 06003KT 10SM CLR 25/23 A3011 RMK AO2
KHDC 300338Z AUTO 10005KT 10SM CLR 26/23 A3010 RMK AO2 LTG DSNT SW
KHDC 300318Z AUTO 09003KT 10SM CLR 26/23 A3010 RMK AO2
KHDC 300258Z AUTO 09005KT 10SM SCT029 26/23 A3010 RMK AO2
KHDC 300238Z AUTO 09006KT 10SM SCT027 26/23 A3010 RMK AO2

METAR Board
Radar Display
Forecast Discussion
For situational awareness. Not to be used for flight planning purposes.